QTR417 OKKK-OTHH
Flight info
| Callsign | QTR417 |
|---|---|
| Flight time | 0h 38m |
| Altitude | 29000 |
| Route | BOXIK B416 IMDOX P975 LONOS L703 HAYYA |
| Aircraft | B77L/H-SDE1E2E3FGHIJ2J3J4J5M1RWXY/LB1D1 |
Departure
| Time | 2026-05-08 11:04 |
|---|---|
| Airport | Kuwait International Airport (OKKK) |
Arrival
| Time | 2026-05-08 11:42 |
|---|---|
| Airport | Hamad International Airport (OTHH) |
| Time | Latitude | Longitude | Altitude | Speed | Heading |
|---|---|---|---|---|---|
| 2026-05-08 10:16 | 29.24449 | 47.96309 | 171 ft | 0 kts | 65° |
| 2026-05-08 10:49 | 29.24445 | 47.96299 | 171 ft | 4 kts | 64° |
| 2026-05-08 10:49 | 29.24433 | 47.96271 | 170 ft | 4 kts | 63° |
| 2026-05-08 10:50 | 29.24421 | 47.96245 | 170 ft | 2 kts | 63° |
| 2026-05-08 10:50 | 29.24415 | 47.96220 | 169 ft | 4 kts | 108° |
| 2026-05-08 10:50 | 29.24430 | 47.96200 | 169 ft | 4 kts | 156° |
| 2026-05-08 10:50 | 29.24446 | 47.96193 | 169 ft | 1 kts | 155° |
| 2026-05-08 10:51 | 29.24448 | 47.96192 | 169 ft | 1 kts | 155° |
| 2026-05-08 10:55 | 29.24396 | 47.96219 | 169 ft | 14 kts | 155° |
| 2026-05-08 10:55 | 29.24305 | 47.96267 | 169 ft | 14 kts | 155° |
| 2026-05-08 10:55 | 29.24221 | 47.96311 | 168 ft | 11 kts | 154° |
| 2026-05-08 10:55 | 29.24146 | 47.96351 | 168 ft | 12 kts | 155° |
| 2026-05-08 10:56 | 29.24066 | 47.96393 | 168 ft | 13 kts | 155° |
| 2026-05-08 10:56 | 29.23985 | 47.96438 | 168 ft | 13 kts | 154° |
| 2026-05-08 10:56 | 29.23904 | 47.96480 | 168 ft | 13 kts | 155° |
| 2026-05-08 10:56 | 29.23822 | 47.96523 | 169 ft | 13 kts | 155° |
| 2026-05-08 10:57 | 29.23718 | 47.96580 | 169 ft | 19 kts | 155° |
| 2026-05-08 10:57 | 29.23601 | 47.96642 | 168 ft | 19 kts | 155° |
| 2026-05-08 10:57 | 29.23365 | 47.96767 | 169 ft | 19 kts | 155° |
| 2026-05-08 10:58 | 29.23246 | 47.96830 | 169 ft | 19 kts | 155° |
| 2026-05-08 10:58 | 29.23128 | 47.96892 | 171 ft | 19 kts | 155° |
| 2026-05-08 10:58 | 29.23009 | 47.96954 | 172 ft | 19 kts | 154° |
| 2026-05-08 10:58 | 29.22892 | 47.97018 | 172 ft | 19 kts | 155° |
| 2026-05-08 10:59 | 29.22773 | 47.97080 | 172 ft | 19 kts | 155° |
| 2026-05-08 10:59 | 29.22655 | 47.97143 | 172 ft | 19 kts | 155° |
| 2026-05-08 10:59 | 29.22537 | 47.97206 | 172 ft | 19 kts | 155° |
| 2026-05-08 10:59 | 29.22419 | 47.97269 | 172 ft | 19 kts | 155° |
| 2026-05-08 11:00 | 29.22300 | 47.97332 | 171 ft | 19 kts | 155° |
| 2026-05-08 11:00 | 29.22182 | 47.97395 | 171 ft | 19 kts | 155° |
| 2026-05-08 11:00 | 29.22065 | 47.97457 | 171 ft | 19 kts | 155° |
| 2026-05-08 11:00 | 29.21937 | 47.97525 | 171 ft | 28 kts | 154° |
| 2026-05-08 11:01 | 29.21755 | 47.97623 | 171 ft | 28 kts | 155° |
| 2026-05-08 11:01 | 29.21578 | 47.97716 | 173 ft | 28 kts | 155° |
| 2026-05-08 11:01 | 29.21410 | 47.97806 | 174 ft | 23 kts | 155° |
| 2026-05-08 11:01 | 29.21305 | 47.97858 | 175 ft | 14 kts | 168° |
| 2026-05-08 11:02 | 29.21243 | 47.97789 | 174 ft | 14 kts | 259° |
| 2026-05-08 11:02 | 29.21317 | 47.97606 | 174 ft | 8 kts | 327° |
| 2026-05-08 11:02 | 29.21335 | 47.97597 | 174 ft | 1 kts | 336° |
| 2026-05-08 11:03 | 29.21339 | 47.97594 | 174 ft | 1 kts | 335° |
| 2026-05-08 11:03 | 29.21482 | 47.97518 | 173 ft | 57 kts | 335° |
| 2026-05-08 11:03 | 29.22083 | 47.97194 | 171 ft | 134 kts | 335° |
| 2026-05-08 11:03 | 29.23070 | 47.96700 | 367 ft | 164 kts | 333° |
| 2026-05-08 11:04 | 29.24114 | 47.96165 | 1073 ft | 165 kts | 335° |
| 2026-05-08 11:04 | 29.25117 | 47.95650 | 1903 ft | 152 kts | 337° |
| 2026-05-08 11:04 | 29.26155 | 47.95138 | 2564 ft | 170 kts | 337° |
| 2026-05-08 11:04 | 29.27273 | 47.94586 | 3393 ft | 182 kts | 337° |
| 2026-05-08 11:05 | 29.28449 | 47.94009 | 3892 ft | 186 kts | 337° |
| 2026-05-08 11:05 | 29.29638 | 47.93425 | 4718 ft | 188 kts | 336° |
| 2026-05-08 11:05 | 29.30933 | 47.92974 | 5320 ft | 205 kts | 358° |
| 2026-05-08 11:05 | 29.32369 | 47.93384 | 5885 ft | 233 kts | 27° |
| 2026-05-08 11:06 | 29.33542 | 47.94761 | 6500 ft | 256 kts | 60° |
| 2026-05-08 11:06 | 29.33956 | 47.96795 | 7194 ft | 272 kts | 95° |
| 2026-05-08 11:06 | 29.33377 | 47.98859 | 8029 ft | 277 kts | 123° |
| 2026-05-08 11:06 | 29.32280 | 48.00686 | 9018 ft | 280 kts | 131° |
| 2026-05-08 11:07 | 29.31035 | 48.02492 | 9812 ft | 297 kts | 132° |
| 2026-05-08 11:07 | 29.29710 | 48.04378 | 10684 ft | 312 kts | 132° |
| 2026-05-08 11:07 | 29.28292 | 48.06408 | 11161 ft | 342 kts | 131° |
| 2026-05-08 11:07 | 29.26750 | 48.08666 | 11429 ft | 378 kts | 130° |
| 2026-05-08 11:08 | 29.25099 | 48.11132 | 12020 ft | 397 kts | 130° |
| 2026-05-08 11:08 | 29.23424 | 48.13665 | 13067 ft | 401 kts | 129° |
| 2026-05-08 11:08 | 29.21746 | 48.16225 | 14149 ft | 403 kts | 129° |
| 2026-05-08 11:08 | 29.20075 | 48.18784 | 15001 ft | 411 kts | 129° |
| 2026-05-08 11:09 | 29.18348 | 48.21433 | 15818 ft | 419 kts | 129° |
| 2026-05-08 11:09 | 29.16589 | 48.24133 | 16635 ft | 427 kts | 129° |
| 2026-05-08 11:09 | 29.14801 | 48.26877 | 17508 ft | 433 kts | 129° |
| 2026-05-08 11:09 | 29.12986 | 48.29661 | 18316 ft | 440 kts | 129° |
| 2026-05-08 11:10 | 29.11140 | 48.32490 | 19061 ft | 445 kts | 130° |
| 2026-05-08 11:10 | 29.09288 | 48.35327 | 19940 ft | 446 kts | 130° |
| 2026-05-08 11:10 | 29.07426 | 48.38176 | 20862 ft | 447 kts | 131° |
| 2026-05-08 11:10 | 29.05562 | 48.41027 | 21713 ft | 449 kts | 131° |
| 2026-05-08 11:11 | 29.03682 | 48.43898 | 22476 ft | 453 kts | 131° |
| 2026-05-08 11:11 | 29.01795 | 48.46777 | 23377 ft | 453 kts | 132° |
| 2026-05-08 11:11 | 28.99905 | 48.49659 | 24060 ft | 455 kts | 132° |
| 2026-05-08 11:11 | 28.97993 | 48.52571 | 24574 ft | 461 kts | 133° |
| 2026-05-08 11:12 | 28.96058 | 48.55514 | 25081 ft | 467 kts | 133° |
| 2026-05-08 11:12 | 28.94097 | 48.58497 | 25629 ft | 471 kts | 133° |
| 2026-05-08 11:12 | 28.92235 | 48.61329 | 26169 ft | 475 kts | 133° |
| 2026-05-08 11:12 | 28.90261 | 48.64332 | 26718 ft | 479 kts | 134° |
| 2026-05-08 11:13 | 28.88254 | 48.67381 | 27259 ft | 483 kts | 134° |
| 2026-05-08 11:13 | 28.86227 | 48.70459 | 27774 ft | 487 kts | 134° |
| 2026-05-08 11:13 | 28.84183 | 48.73562 | 28260 ft | 492 kts | 134° |
| 2026-05-08 11:13 | 28.82110 | 48.76702 | 28729 ft | 497 kts | 134° |
| 2026-05-08 11:14 | 28.80060 | 48.79897 | 28938 ft | 503 kts | 131° |
| 2026-05-08 11:14 | 28.76568 | 48.86830 | 28906 ft | 503 kts | 126° |
| 2026-05-08 11:15 | 28.73244 | 48.93831 | 28919 ft | 503 kts | 126° |
| 2026-05-08 11:15 | 28.69855 | 49.00795 | 28915 ft | 503 kts | 127° |
| 2026-05-08 11:16 | 28.66444 | 49.07709 | 28918 ft | 504 kts | 127° |
| 2026-05-08 11:16 | 28.59737 | 49.20951 | 28902 ft | 497 kts | 134° |
| 2026-05-08 11:16 | 28.52317 | 49.28006 | 28853 ft | 467 kts | 160° |
| 2026-05-08 11:17 | 28.44653 | 49.34549 | 28957 ft | 483 kts | 144° |
| 2026-05-08 11:17 | 28.24368 | 49.54857 | 28892 ft | 489 kts | 146° |
| 2026-05-08 11:18 | 28.02961 | 49.73521 | 28877 ft | 482 kts | 151° |
| 2026-05-08 11:18 | 27.80884 | 49.90620 | 28896 ft | 481 kts | 152° |
| 2026-05-08 11:19 | 27.58753 | 50.07630 | 28900 ft | 482 kts | 152° |
| 2026-05-08 11:19 | 27.36650 | 50.24932 | 28861 ft | 486 kts | 150° |
| 2026-05-08 11:20 | 27.14730 | 50.42768 | 28851 ft | 486 kts | 150° |
| 2026-05-08 11:20 | 26.93102 | 50.60702 | 28839 ft | 490 kts | 146° |
| 2026-05-08 11:21 | 26.72247 | 50.80237 | 28842 ft | 487 kts | 146° |
| 2026-05-08 11:21 | 26.51390 | 50.99589 | 28838 ft | 487 kts | 146° |
| 2026-05-08 11:22 | 26.30508 | 51.18891 | 28846 ft | 488 kts | 146° |
| 2026-05-08 11:22 | 26.10294 | 51.37537 | 28847 ft | 488 kts | 146° |
| 2026-05-08 11:23 | 26.05067 | 51.42344 | 28827 ft | 487 kts | 146° |
| 2026-05-08 11:23 | 26.00327 | 51.47666 | 28836 ft | 488 kts | 130° |
| 2026-05-08 11:24 | 25.96473 | 51.53984 | 28818 ft | 506 kts | 123° |
| 2026-05-08 11:24 | 25.94932 | 51.57504 | 28222 ft | 507 kts | 117° |
| 2026-05-08 11:24 | 25.93729 | 51.61183 | 27450 ft | 507 kts | 110° |
| 2026-05-08 11:24 | 25.92806 | 51.64942 | 26745 ft | 501 kts | 109° |
| 2026-05-08 11:25 | 25.91869 | 51.68632 | 26066 ft | 491 kts | 112° |
| 2026-05-08 11:25 | 25.90510 | 51.72057 | 25357 ft | 480 kts | 124° |
| 2026-05-08 11:25 | 25.88544 | 51.74993 | 24683 ft | 468 kts | 136° |
| 2026-05-08 11:25 | 25.86202 | 51.77438 | 24065 ft | 458 kts | 146° |
| 2026-05-08 11:26 | 25.83507 | 51.79235 | 23442 ft | 447 kts | 159° |
| 2026-05-08 11:26 | 25.80606 | 51.80372 | 22722 ft | 439 kts | 168° |
| 2026-05-08 11:26 | 25.77628 | 51.80963 | 22040 ft | 430 kts | 178° |
| 2026-05-08 11:26 | 25.74663 | 51.81024 | 21363 ft | 424 kts | 181° |
| 2026-05-08 11:27 | 25.71733 | 51.81024 | 20759 ft | 419 kts | 181° |
| 2026-05-08 11:27 | 25.68833 | 51.80945 | 20098 ft | 415 kts | 184° |
| 2026-05-08 11:27 | 25.65960 | 51.80775 | 19470 ft | 412 kts | 184° |
| 2026-05-08 11:27 | 25.63110 | 51.80576 | 18889 ft | 408 kts | 184° |
| 2026-05-08 11:28 | 25.60300 | 51.80378 | 18284 ft | 398 kts | 184° |
| 2026-05-08 11:28 | 25.57546 | 51.80191 | 17387 ft | 398 kts | 184° |
| 2026-05-08 11:28 | 25.54866 | 51.80016 | 16659 ft | 398 kts | 184° |
| 2026-05-08 11:28 | 25.52105 | 51.79842 | 15947 ft | 397 kts | 183° |
| 2026-05-08 11:29 | 25.49364 | 51.79674 | 15305 ft | 394 kts | 183° |
| 2026-05-08 11:29 | 25.46642 | 51.79509 | 14667 ft | 390 kts | 183° |
| 2026-05-08 11:29 | 25.43942 | 51.79346 | 14182 ft | 385 kts | 183° |
| 2026-05-08 11:29 | 25.41326 | 51.79188 | 14000 ft | 369 kts | 183° |
| 2026-05-08 11:30 | 25.38797 | 51.79035 | 13706 ft | 359 kts | 183° |
| 2026-05-08 11:30 | 25.36308 | 51.78886 | 13159 ft | 356 kts | 183° |
| 2026-05-08 11:30 | 25.33828 | 51.78737 | 12481 ft | 357 kts | 183° |
| 2026-05-08 11:30 | 25.31359 | 51.78590 | 12038 ft | 351 kts | 184° |
| 2026-05-08 11:31 | 25.28947 | 51.78444 | 11644 ft | 345 kts | 184° |
| 2026-05-08 11:31 | 25.26603 | 51.78304 | 11171 ft | 331 kts | 184° |
| 2026-05-08 11:31 | 25.24330 | 51.78166 | 10544 ft | 321 kts | 184° |
| 2026-05-08 11:31 | 25.22155 | 51.78034 | 10169 ft | 305 kts | 184° |
| 2026-05-08 11:32 | 25.20077 | 51.77914 | 9828 ft | 299 kts | 186° |
| 2026-05-08 11:32 | 25.18025 | 51.77797 | 9578 ft | 288 kts | 185° |
| 2026-05-08 11:32 | 25.16056 | 51.77676 | 9058 ft | 280 kts | 185° |
| 2026-05-08 11:32 | 25.14121 | 51.77636 | 8430 ft | 278 kts | 173° |
| 2026-05-08 11:33 | 25.12287 | 51.78301 | 7743 ft | 279 kts | 158° |
| 2026-05-08 11:33 | 25.10521 | 51.79146 | 7202 ft | 274 kts | 160° |
| 2026-05-08 11:33 | 25.08783 | 51.79927 | 6749 ft | 267 kts | 160° |
| 2026-05-08 11:33 | 25.07072 | 51.80682 | 6466 ft | 262 kts | 161° |
| 2026-05-08 11:34 | 25.05378 | 51.81256 | 6100 ft | 251 kts | 179° |
| 2026-05-08 11:34 | 25.03716 | 51.80858 | 5664 ft | 244 kts | 213° |
| 2026-05-08 11:34 | 25.02499 | 51.79627 | 5312 ft | 236 kts | 240° |
| 2026-05-08 11:34 | 25.01892 | 51.77994 | 5027 ft | 226 kts | 262° |
| 2026-05-08 11:35 | 25.01943 | 51.76317 | 4739 ft | 216 kts | 289° |
| 2026-05-08 11:35 | 25.02542 | 51.74837 | 4453 ft | 205 kts | 308° |
| 2026-05-08 11:35 | 25.03487 | 51.73778 | 4183 ft | 188 kts | 329° |
| 2026-05-08 11:35 | 25.04604 | 51.72969 | 3651 ft | 199 kts | 332° |
| 2026-05-08 11:36 | 25.05779 | 51.72146 | 3308 ft | 198 kts | 331° |
| 2026-05-08 11:36 | 25.06900 | 51.71353 | 3177 ft | 186 kts | 332° |
| 2026-05-08 11:36 | 25.07963 | 51.70598 | 3020 ft | 178 kts | 333° |
| 2026-05-08 11:36 | 25.09001 | 51.69923 | 2878 ft | 169 kts | 341° |
| 2026-05-08 11:37 | 25.10099 | 51.69449 | 2764 ft | 171 kts | 343° |
| 2026-05-08 11:37 | 25.11216 | 51.68982 | 2667 ft | 172 kts | 343° |
| 2026-05-08 11:37 | 25.12322 | 51.68504 | 2592 ft | 169 kts | 342° |
| 2026-05-08 11:37 | 25.13429 | 51.68020 | 2398 ft | 172 kts | 342° |
| 2026-05-08 11:38 | 25.14535 | 51.67533 | 2193 ft | 169 kts | 342° |
| 2026-05-08 11:38 | 25.15581 | 51.67071 | 1986 ft | 155 kts | 342° |
| 2026-05-08 11:38 | 25.16528 | 51.66652 | 1811 ft | 138 kts | 342° |
| 2026-05-08 11:38 | 25.17373 | 51.66281 | 1633 ft | 126 kts | 341° |
| 2026-05-08 11:39 | 25.18197 | 51.65918 | 1495 ft | 128 kts | 341° |
| 2026-05-08 11:39 | 25.19020 | 51.65555 | 1321 ft | 127 kts | 342° |
| 2026-05-08 11:39 | 25.19836 | 51.65195 | 1167 ft | 126 kts | 342° |
| 2026-05-08 11:39 | 25.20645 | 51.64839 | 1002 ft | 124 kts | 341° |
| 2026-05-08 11:40 | 25.21444 | 51.64486 | 836 ft | 126 kts | 342° |
| 2026-05-08 11:40 | 25.22295 | 51.64102 | 735 ft | 134 kts | 341° |
| 2026-05-08 11:40 | 25.23159 | 51.63711 | 660 ft | 136 kts | 341° |
| 2026-05-08 11:40 | 25.24042 | 51.63309 | 405 ft | 137 kts | 344° |
| 2026-05-08 11:41 | 25.24927 | 51.62938 | 213 ft | 136 kts | 345° |
| 2026-05-08 11:41 | 25.25823 | 51.62554 | 42 ft | 138 kts | 338° |
| 2026-05-08 11:41 | 25.26611 | 51.62210 | 30 ft | 102 kts | 338° |
| 2026-05-08 11:41 | 25.27129 | 51.61980 | 30 ft | 58 kts | 338° |
| 2026-05-08 11:42 | 25.27361 | 51.61878 | 31 ft | 14 kts | 338° |
| 2026-05-08 11:42 | 25.27449 | 51.61840 | 32 ft | 14 kts | 339° |
| 2026-05-08 11:42 | 25.27538 | 51.61802 | 32 ft | 14 kts | 338° |
| 2026-05-08 11:42 | 25.27600 | 51.61731 | 31 ft | 14 kts | 280° |
| 2026-05-08 11:43 | 25.27577 | 51.61634 | 32 ft | 13 kts | 250° |
| 2026-05-08 11:43 | 25.27545 | 51.61543 | 33 ft | 13 kts | 250° |
| 2026-05-08 11:43 | 25.27589 | 51.61471 | 34 ft | 13 kts | 334° |
| 2026-05-08 11:43 | 25.27671 | 51.61432 | 34 ft | 13 kts | 337° |
| 2026-05-08 11:44 | 25.27751 | 51.61395 | 34 ft | 11 kts | 338° |
| 2026-05-08 11:44 | 25.27779 | 51.61377 | 34 ft | 4 kts | 309° |
| 2026-05-08 11:44 | 25.27779 | 51.61347 | 34 ft | 4 kts | 255° |
| 2026-05-08 11:44 | 25.27764 | 51.61302 | 34 ft | 5 kts | 249° |
| 2026-05-08 11:45 | 25.27750 | 51.61262 | 34 ft | 6 kts | 249° |
| 2026-05-08 11:45 | 25.27739 | 51.61232 | 34 ft | 7 kts | 248° |
| 2026-05-08 11:45 | 25.27730 | 51.61209 | 34 ft | 0 kts | 248° |
| 2026-05-08 11:45 | 25.27728 | 51.61202 | 34 ft | 2 kts | 248° |
| 2026-05-08 11:46 | 25.27724 | 51.61191 | 34 ft | 1 kts | 248° |
| 2026-05-08 11:46 | 25.27722 | 51.61188 | 34 ft | 0 kts | 248° |
| 2026-05-08 11:46 | 25.27722 | 51.61187 | 34 ft | 0 kts | 248° |